Time;durP1;ratioP1;P1;durP2;ratioP2;P2;SDS_P1;SDS_P2;PMS_P1;PMS_P2;Temp;Humidity;BMP_temperature;BMP_pressure;BME280_temperature;BME280_humidity;BME280_pressure;Samples;Min_cycle;Max_cycle;Signal;HPM_P1;HPM_P2
2022/12/16 00:01:07;;;;;;;46.57;16.43;;;-2.40;99.90;;;;;;4989785;28;20415;-68
2022/12/16 00:03:33;;;;;;;31.43;15.37;;;-2.40;99.90;;;;;;4983446;28;20254;-68
2022/12/16 00:06:00;;;;;;;26.60;15.47;;;-2.40;99.90;;;;;;4997273;28;20529;-68
2022/12/16 00:08:26;;;;;;;29.50;15.27;;;-2.40;99.90;;;;;;4982264;28;20418;-68
2022/12/16 00:10:56;;;;;;;33.53;15.13;;;-2.40;99.90;;;;;;4990599;28;20445;-68
2022/12/16 00:13:22;;;;;;;32.07;14.40;;;-2.40;99.90;;;;;;4990720;28;20176;-68
2022/12/16 00:15:47;;;;;;;39.50;17.00;;;-2.40;99.90;;;;;;4990488;28;20441;-68
2022/12/16 00:18:13;;;;;;;34.77;15.83;;;-2.40;99.90;;;;;;4990985;28;20663;-68
2022/12/16 00:20:52;;;;;;;28.80;15.50;;;-2.40;99.90;;;;;;4990942;28;20199;-68
2022/12/16 00:23:18;;;;;;;45.60;15.40;;;-2.50;99.90;;;;;;4992959;28;20414;-67
2022/12/16 00:25:45;;;;;;;34.70;16.23;;;-2.50;99.90;;;;;;4990521;28;20466;-68
2022/12/16 00:28:12;;;;;;;46.80;16.47;;;-2.50;99.90;;;;;;4990692;28;20411;-68
2022/12/16 00:30:38;;;;;;;46.03;17.27;;;-2.50;99.90;;;;;;4990199;28;20433;-68
2022/12/16 00:33:04;;;;;;;40.13;17.20;;;-2.50;99.90;;;;;;4989390;28;20415;-68
2022/12/16 00:35:31;;;;;;;36.03;16.67;;;-2.50;99.90;;;;;;4991454;28;20415;-68
2022/12/16 00:37:56;;;;;;;39.07;16.83;;;-2.50;99.90;;;;;;4994133;28;20442;-68
2022/12/16 00:40:22;;;;;;;47.60;15.80;;;-2.50;99.90;;;;;;4998915;28;20485;-68
2022/12/16 00:42:48;;;;;;;38.10;17.50;;;-2.50;99.90;;;;;;5007920;28;20187;-68
2022/12/16 00:45:14;;;;;;;37.57;17.77;;;-2.50;99.90;;;;;;5013446;28;20465;-68
2022/12/16 00:47:40;;;;;;;56.70;18.47;;;-2.60;99.90;;;;;;5013422;28;20179;-68
2022/12/16 00:50:06;;;;;;;53.53;18.10;;;-2.60;99.90;;;;;;5013911;28;20187;-68
2022/12/16 00:52:31;;;;;;;45.73;19.90;;;-2.70;99.90;;;;;;5006657;28;20184;-68
2022/12/16 00:54:57;;;;;;;42.53;17.87;;;-2.70;99.90;;;;;;5013387;28;20863;-68
2022/12/16 00:57:23;;;;;;;44.00;18.13;;;-2.80;99.90;;;;;;5013285;28;20179;-68
2022/12/16 00:59:48;;;;;;;47.97;19.73;;;-2.80;99.90;;;;;;5013247;28;20308;-68
2022/12/16 01:02:14;;;;;;;40.80;16.60;;;-2.80;99.90;;;;;;5012927;28;20175;-68
2022/12/16 01:04:40;;;;;;;38.00;18.00;;;-2.80;99.90;;;;;;5013443;28;20992;-68
2022/12/16 01:07:05;;;;;;;37.60;16.60;;;-2.90;99.90;;;;;;5013611;28;20191;-68
2022/12/16 01:09:31;;;;;;;39.40;17.73;;;-2.90;99.90;;;;;;5006162;28;20215;-68
2022/12/16 01:11:56;;;;;;;38.57;16.93;;;-2.90;99.90;;;;;;4999594;28;20656;-68
2022/12/16 01:14:22;;;;;;;40.13;18.23;;;-2.90;99.90;;;;;;5012378;28;20241;-68
2022/12/16 01:16:48;;;;;;;37.50;17.43;;;-2.90;99.90;;;;;;5012888;28;20279;-68
2022/12/16 01:19:13;;;;;;;44.03;19.73;;;-2.90;99.90;;;;;;5013009;28;20209;-68
2022/12/16 01:21:39;;;;;;;46.67;19.30;;;-2.90;99.90;;;;;;5008824;28;20358;-68
2022/12/16 01:24:05;;;;;;;5.23;3.47;;;-2.90;99.90;;;;;;5002164;28;20547;-67
2022/12/16 01:26:31;;;;;;;58.83;18.37;;;-2.90;99.90;;;;;;5012662;28;20199;-67
2022/12/16 01:28:57;;;;;;;44.13;18.70;;;-2.90;99.90;;;;;;5012295;28;20429;-68
2022/12/16 01:31:23;;;;;;;54.87;19.87;;;-3.00;99.90;;;;;;5012726;28;20183;-67
2022/12/16 01:33:49;;;;;;;38.83;17.13;;;-3.00;99.90;;;;;;5011901;28;20457;-68
2022/12/16 01:36:15;;;;;;;37.07;17.80;;;-3.00;99.90;;;;;;5012965;28;20441;-68
2022/12/16 01:38:45;;;;;;;46.37;18.70;;;-3.00;99.90;;;;;;5005083;28;21261;-68
2022/12/16 01:41:14;;;;;;;41.07;16.20;;;-3.00;99.90;;;;;;4999222;28;20419;-68
2022/12/16 01:43:40;;;;;;;39.03;18.87;;;-3.00;99.90;;;;;;5004200;28;20475;-67
2022/12/16 01:46:12;;;;;;;36.80;17.23;;;-3.10;99.90;;;;;;5007493;28;20469;-68
2022/12/16 01:48:37;;;;;;;31.63;14.90;;;-3.10;99.90;;;;;;5012071;28;20414;-68
2022/12/16 01:51:33;;;;;;;42.37;17.70;;;-3.10;99.90;;;;;;5012626;28;20414;-68
2022/12/16 01:54:14;;;;;;;38.33;18.70;;;-3.10;99.90;;;;;;5005879;28;20206;-68
2022/12/16 01:56:47;;;;;;;41.47;17.23;;;-3.10;99.90;;;;;;4988018;28;21240;-68
2022/12/16 01:59:15;;;;;;;2.90;2.30;;;-3.10;99.90;;;;;;4997777;28;20476;-68
2022/12/16 02:01:40;;;;;;;2.70;0.90;;;-3.10;99.90;;;;;;5004999;28;20422;-68
2022/12/16 02:04:06;;;;;;;48.13;18.60;;;-3.10;99.90;;;;;;5012164;28;20965;-68
2022/12/16 02:06:32;;;;;;;39.23;18.03;;;-3.00;99.90;;;;;;5012182;28;20897;-68
2022/12/16 02:09:03;;;;;;;40.43;17.60;;;-3.00;99.90;;;;;;5005818;28;20176;-68
2022/12/16 02:12:06;;;;;;;3.33;2.10;;;-3.00;99.90;;;;;;5002048;28;20411;-68
2022/12/16 02:15:05;;;;;;;38.57;16.83;;;-3.00;99.90;;;;;;5000582;28;20422;-67
2022/12/16 02:17:57;;;;;;;1.53;1.43;;;-3.00;99.90;;;;;;5011888;28;20795;-68
2022/12/16 02:20:43;;;;;;;6.43;3.63;;;-3.00;99.90;;;;;;5005901;28;20903;-69
2022/12/16 02:23:40;;;;;;;5.40;4.00;;;-3.10;99.90;;;;;;5000006;28;20413;-66
2022/12/16 02:26:14;;;;;;;49.70;16.87;;;-3.10;99.90;;;;;;5011599;28;20523;-66
2022/12/16 02:29:01;;;;;;;2.70;1.03;;;-3.10;99.90;;;;;;5011729;28;20424;-66
2022/12/16 02:31:36;;;;;;;29.13;14.43;;;-3.10;99.90;;;;;;5011224;28;20521;-66
2022/12/16 02:34:26;;;;;;;35.13;17.00;;;-3.10;99.90;;;;;;5010976;28;20428;-66
2022/12/16 02:37:00;;;;;;;41.20;16.40;;;-3.10;99.90;;;;;;5012423;28;20414;-66
2022/12/16 02:39:37;;;;;;;3.90;1.93;;;-3.10;99.90;;;;;;4998212;28;20437;-66
2022/12/16 02:42:29;;;;;;;2.93;1.80;;;-3.10;99.90;;;;;;5003149;28;20421;-66
2022/12/16 02:45:11;;;;;;;34.40;17.00;;;-3.10;99.90;;;;;;5010798;28;20942;-66
2022/12/16 02:47:38;;;;;;;2.50;1.60;;;-3.10;99.90;;;;;;5011313;28;20425;-65
2022/12/16 02:50:14;;;;;;;29.33;14.87;;;-3.10;99.90;;;;;;5011217;28;20414;-66
2022/12/16 02:52:40;;;;;;;33.53;16.47;;;-3.10;99.90;;;;;;5004341;28;20414;-66
2022/12/16 02:55:07;;;;;;;3.53;1.73;;;-3.10;99.90;;;;;;5011095;28;20566;-65
2022/12/16 02:57:45;;;;;;;34.73;14.77;;;-3.10;99.90;;;;;;5011237;28;20864;-66
2022/12/16 03:00:15;;;;;;;39.30;16.90;;;-3.10;99.90;;;;;;5010294;28;20418;-65
2022/12/16 03:03:00;;;;;;;6.30;2.20;;;-3.10;99.90;;;;;;5010632;28;20417;-69
2022/12/16 03:05:32;;;;;;;28.27;15.17;;;-3.10;99.90;;;;;;5010987;28;20458;-68
2022/12/16 03:08:04;;;;;;;5.43;2.70;;;-3.10;99.90;;;;;;5011125;28;20453;-66
2022/12/16 03:10:44;;;;;;;35.07;16.90;;;-3.10;99.90;;;;;;4997358;28;20411;-66
2022/12/16 03:13:11;;;;;;;34.63;14.30;;;-3.10;99.90;;;;;;5003650;28;20428;-66
2022/12/16 03:15:40;;;;;;;35.47;16.90;;;-3.10;99.90;;;;;;5010340;28;20453;-66
2022/12/16 03:18:08;;;;;;;3.00;2.80;;;-3.10;99.90;;;;;;5010912;28;20425;-65
2022/12/16 03:21:04;;;;;;;3.50;1.60;;;-3.10;99.90;;;;;;5007942;28;20488;-66
2022/12/16 03:23:49;;;;;;;6.50;3.90;;;-3.10;99.90;;;;;;4994773;28;20739;-66
2022/12/16 03:26:20;;;;;;;39.57;16.73;;;-3.10;99.90;;;;;;5011132;28;20504;-66
2022/12/16 03:28:58;;;;;;;38.53;14.43;;;-3.10;99.90;;;;;;5010996;28;20414;-66
2022/12/16 03:31:35;;;;;;;39.07;14.73;;;-3.10;99.90;;;;;;5010612;28;20816;-65
2022/12/16 03:34:28;;;;;;;27.17;13.33;;;-3.10;99.90;;;;;;4987258;28;21148;-66
2022/12/16 03:36:59;;;;;;;25.67;13.23;;;-3.10;99.90;;;;;;5010868;28;20460;-68
2022/12/16 03:39:26;;;;;;;34.13;14.47;;;-3.10;99.90;;;;;;4997794;28;20462;-66
2022/12/16 03:41:55;;;;;;;1.70;0.83;;;-3.10;99.90;;;;;;5002236;28;20417;-66
2022/12/16 03:44:24;;;;;;;33.83;14.50;;;-3.10;99.90;;;;;;5010324;28;20410;-65
2022/12/16 03:46:50;;;;;;;36.70;13.43;;;-3.10;99.90;;;;;;5010190;28;20452;-66
2022/12/16 03:49:15;;;;;;;36.03;15.17;;;-3.10;99.90;;;;;;5002123;28;20455;-66
2022/12/16 03:51:41;;;;;;;2.13;1.40;;;-3.10;99.90;;;;;;5009447;28;20465;-66
2022/12/16 03:54:07;;;;;;;34.93;15.30;;;-3.10;99.90;;;;;;5005320;28;20175;-66
2022/12/16 03:56:32;;;;;;;35.57;15.90;;;-3.10;99.90;;;;;;5010737;28;20249;-66
2022/12/16 03:58:58;;;;;;;26.13;13.20;;;-3.10;99.90;;;;;;4996561;28;20183;-66
2022/12/16 04:01:23;;;;;;;2.37;1.47;;;-3.00;99.90;;;;;;5002841;28;20648;-66
2022/12/16 04:03:49;;;;;;;45.60;13.13;;;-3.10;99.90;;;;;;5010300;28;20189;-66
2022/12/16 04:06:17;;;;;;;31.20;14.93;;;-3.10;99.90;;;;;;5010580;28;20656;-66
2022/12/16 04:08:47;;;;;;;9.90;2.77;;;-3.10;99.90;;;;;;5006882;28;20264;-66
2022/12/16 04:25:12;;;;;;;36.37;14.57;;;-3.00;99.90;;;;;;5002863;28;20955;-66
2022/12/16 04:27:37;;;;;;;32.80;15.67;;;-3.00;99.90;;;;;;5014077;28;20413;-66
2022/12/16 04:30:19;;;;;;;30.37;14.87;;;-3.00;99.90;;;;;;5013592;28;20414;-66
